sensor_id;sensor_type;location;lat;lon;timestamp;P1;durP1;ratioP1;P2;durP2;ratioP2
73132;SDS011;61320;52.008;4.530;2023-07-20T00:02:06;6.12;;;6.12;;
73132;SDS011;61320;52.008;4.530;2023-07-20T00:04:34;6.10;;;6.10;;
73132;SDS011;61320;52.008;4.530;2023-07-20T00:06:59;6.04;;;6.04;;
73132;SDS011;61320;52.008;4.530;2023-07-20T00:09:28;5.79;;;5.79;;
73132;SDS011;61320;52.008;4.530;2023-07-20T00:11:54;5.76;;;5.76;;
73132;SDS011;61320;52.008;4.530;2023-07-20T00:14:22;5.02;;;5.02;;
73132;SDS011;61320;52.008;4.530;2023-07-20T00:16:50;5.05;;;5.05;;
73132;SDS011;61320;52.008;4.530;2023-07-20T00:19:23;4.86;;;4.86;;
73132;SDS011;61320;52.008;4.530;2023-07-20T00:21:49;4.93;;;4.93;;
73132;SDS011;61320;52.008;4.530;2023-07-20T00:24:15;4.70;;;4.70;;
73132;SDS011;61320;52.008;4.530;2023-07-20T00:26:40;4.60;;;4.60;;
73132;SDS011;61320;52.008;4.530;2023-07-20T00:29:06;4.78;;;4.78;;
73132;SDS011;61320;52.008;4.530;2023-07-20T00:31:31;4.83;;;4.83;;
73132;SDS011;61320;52.008;4.530;2023-07-20T00:33:57;4.96;;;4.96;;
73132;SDS011;61320;52.008;4.530;2023-07-20T00:36:23;4.88;;;4.88;;
73132;SDS011;61320;52.008;4.530;2023-07-20T00:38:48;4.65;;;4.65;;
73132;SDS011;61320;52.008;4.530;2023-07-20T00:41:16;4.25;;;4.25;;
73132;SDS011;61320;52.008;4.530;2023-07-20T00:43:41;4.05;;;4.05;;
73132;SDS011;61320;52.008;4.530;2023-07-20T00:46:07;3.25;;;3.25;;
73132;SDS011;61320;52.008;4.530;2023-07-20T00:48:42;3.14;;;3.14;;
73132;SDS011;61320;52.008;4.530;2023-07-20T00:51:08;2.92;;;2.92;;
73132;SDS011;61320;52.008;4.530;2023-07-20T00:53:35;2.67;;;2.67;;
73132;SDS011;61320;52.008;4.530;2023-07-20T00:56:01;2.79;;;2.79;;
73132;SDS011;61320;52.008;4.530;2023-07-20T00:58:32;2.45;;;2.45;;
73132;SDS011;61320;52.008;4.530;2023-07-20T01:00:58;2.62;;;2.62;;
73132;SDS011;61320;52.008;4.530;2023-07-20T01:03:24;2.77;;;2.77;;
73132;SDS011;61320;52.008;4.530;2023-07-20T01:08:49;2.43;;;2.43;;
73132;SDS011;61320;52.008;4.530;2023-07-20T01:14:10;2.09;;;2.09;;
73132;SDS011;61320;52.008;4.530;2023-07-20T01:16:38;2.01;;;2.01;;
73132;SDS011;61320;52.008;4.530;2023-07-20T01:19:06;1.99;;;1.99;;
73132;SDS011;61320;52.008;4.530;2023-07-20T01:21:38;2.09;;;2.09;;
73132;SDS011;61320;52.008;4.530;2023-07-20T01:24:22;2.06;;;2.06;;
73132;SDS011;61320;52.008;4.530;2023-07-20T01:30:51;1.92;;;1.92;;
73132;SDS011;61320;52.008;4.530;2023-07-20T01:33:11;1.92;;;1.92;;
73132;SDS011;61320;52.008;4.530;2023-07-20T01:35:43;1.77;;;1.77;;
73132;SDS011;61320;52.008;4.530;2023-07-20T01:38:20;1.98;;;1.98;;
73132;SDS011;61320;52.008;4.530;2023-07-20T01:40:46;1.66;;;1.66;;
73132;SDS011;61320;52.008;4.530;2023-07-20T01:43:12;1.72;;;1.72;;
73132;SDS011;61320;52.008;4.530;2023-07-20T01:45:38;1.91;;;1.91;;
73132;SDS011;61320;52.008;4.530;2023-07-20T01:48:03;1.98;;;1.98;;
73132;SDS011;61320;52.008;4.530;2023-07-20T01:50:29;2.07;;;2.07;;
73132;SDS011;61320;52.008;4.530;2023-07-20T01:52:54;1.89;;;1.89;;
73132;SDS011;61320;52.008;4.530;2023-07-20T01:55:20;1.92;;;1.92;;
73132;SDS011;61320;52.008;4.530;2023-07-20T01:57:46;1.87;;;1.87;;
73132;SDS011;61320;52.008;4.530;2023-07-20T02:00:11;1.84;;;1.84;;
73132;SDS011;61320;52.008;4.530;2023-07-20T02:02:37;1.74;;;1.74;;
73132;SDS011;61320;52.008;4.530;2023-07-20T02:05:03;1.83;;;1.83;;
73132;SDS011;61320;52.008;4.530;2023-07-20T02:07:28;1.88;;;1.88;;
73132;SDS011;61320;52.008;4.530;2023-07-20T02:09:54;1.69;;;1.69;;
73132;SDS011;61320;52.008;4.530;2023-07-20T02:12:19;1.66;;;1.66;;
73132;SDS011;61320;52.008;4.530;2023-07-20T02:14:45;1.93;;;1.93;;
73132;SDS011;61320;52.008;4.530;2023-07-20T02:17:10;2.01;;;2.01;;
73132;SDS011;61320;52.008;4.530;2023-07-20T02:19:36;2.05;;;2.05;;
73132;SDS011;61320;52.008;4.530;2023-07-20T02:22:02;1.89;;;1.89;;
73132;SDS011;61320;52.008;4.530;2023-07-20T02:24:28;1.89;;;1.89;;
73132;SDS011;61320;52.008;4.530;2023-07-20T02:26:53;1.85;;;1.85;;
73132;SDS011;61320;52.008;4.530;2023-07-20T02:29:19;1.85;;;1.85;;
73132;SDS011;61320;52.008;4.530;2023-07-20T02:31:44;1.90;;;1.90;;
73132;SDS011;61320;52.008;4.530;2023-07-20T02:34:10;2.09;;;2.09;;
73132;SDS011;61320;52.008;4.530;2023-07-20T02:36:35;1.95;;;1.95;;
73132;SDS011;61320;52.008;4.530;2023-07-20T02:39:01;1.83;;;1.83;;
73132;SDS011;61320;52.008;4.530;2023-07-20T02:41:33;1.85;;;1.85;;
73132;SDS011;61320;52.008;4.530;2023-07-20T02:43:59;1.83;;;1.83;;
73132;SDS011;61320;52.008;4.530;2023-07-20T02:46:25;2.02;;;2.02;;
73132;SDS011;61320;52.008;4.530;2023-07-20T02:48:50;1.86;;;1.86;;
73132;SDS011;61320;52.008;4.530;2023-07-20T02:51:16;1.94;;;1.94;;
73132;SDS011;61320;52.008;4.530;2023-07-20T02:53:41;1.83;;;1.83;;
73132;SDS011;61320;52.008;4.530;2023-07-20T02:56:07;2.08;;;2.08;;
73132;SDS011;61320;52.008;4.530;2023-07-20T02:58:34;2.01;;;2.01;;
73132;SDS011;61320;52.008;4.530;2023-07-20T03:01:02;2.24;;;2.24;;
73132;SDS011;61320;52.008;4.530;2023-07-20T03:03:32;2.09;;;2.09;;
73132;SDS011;61320;52.008;4.530;2023-07-20T03:06:01;2.00;;;2.00;;
73132;SDS011;61320;52.008;4.530;2023-07-20T03:08:30;2.33;;;2.33;;
73132;SDS011;61320;52.008;4.530;2023-07-20T03:10:55;2.33;;;2.33;;
73132;SDS011;61320;52.008;4.530;2023-07-20T03:13:21;2.21;;;2.21;;
73132;SDS011;61320;52.008;4.530;2023-07-20T03:15:47;2.61;;;2.61;;
73132;SDS011;61320;52.008;4.530;2023-07-20T03:18:13;2.55;;;2.55;;
73132;SDS011;61320;52.008;4.530;2023-07-20T03:20:38;2.24;;;2.24;;
73132;SDS011;61320;52.008;4.530;2023-07-20T03:23:04;2.47;;;2.47;;
73132;SDS011;61320;52.008;4.530;2023-07-20T03:25:29;2.48;;;2.48;;
73132;SDS011;61320;52.008;4.530;2023-07-20T03:27:55;2.47;;;2.47;;
73132;SDS011;61320;52.008;4.530;2023-07-20T03:30:20;2.55;;;2.55;;
73132;SDS011;61320;52.008;4.530;2023-07-20T03:32:49;2.43;;;2.43;;
73132;SDS011;61320;52.008;4.530;2023-07-20T03:35:14;2.72;;;2.72;;
73132;SDS011;61320;52.008;4.530;2023-07-20T03:37:41;2.64;;;2.64;;
73132;SDS011;61320;52.008;4.530;2023-07-20T03:40:07;2.74;;;2.74;;
73132;SDS011;61320;52.008;4.530;2023-07-20T03:42:33;2.47;;;2.47;;
73132;SDS011;61320;52.008;4.530;2023-07-20T03:44:59;2.60;;;2.60;;
73132;SDS011;61320;52.008;4.530;2023-07-20T03:47:24;2.80;;;2.80;;
73132;SDS011;61320;52.008;4.530;2023-07-20T03:49:50;2.55;;;2.55;;
73132;SDS011;61320;52.008;4.530;2023-07-20T03:52:15;2.58;;;2.58;;
73132;SDS011;61320;52.008;4.530;2023-07-20T03:54:41;2.34;;;2.34;;
73132;SDS011;61320;52.008;4.530;2023-07-20T03:57:06;2.47;;;2.47;;
73132;SDS011;61320;52.008;4.530;2023-07-20T03:59:32;2.61;;;2.61;;
73132;SDS011;61320;52.008;4.530;2023-07-20T04:01:59;2.50;;;2.50;;
73132;SDS011;61320;52.008;4.530;2023-07-20T04:04:24;2.45;;;2.45;;
73132;SDS011;61320;52.008;4.530;2023-07-20T04:06:50;2.39;;;2.39;;
73132;SDS011;61320;52.008;4.530;2023-07-20T04:09:15;2.32;;;2.32;;
73132;SDS011;61320;52.008;4.530;2023-07-20T04:11:43;2.55;;;2.55;;
73132;SDS011;61320;52.008;4.530;2023-07-20T04:14:08;2.52;;;2.52;;
73132;SDS011;61320;52.008;4.530;2023-07-20T04:16:34;2.26;;;2.26;;
73132;SDS011;61320;52.008;4.530;2023-07-20T04:18:59;2.49;;;2.49;;
73132;SDS011;61320;52.008;4.530;2023-07-20T04:21:25;2.73;;;2.73;;
73132;SDS011;61320;52.008;4.530;2023-07-20T04:23:52;2.39;;;2.39;;
73132;SDS011;61320;52.008;4.530;2023-07-20T04:26:18;2.69;;;2.69;;
73132;SDS011;61320;52.008;4.530;2023-07-20T04:28:43;2.74;;;2.74;;
73132;SDS011;61320;52.008;4.530;2023-07-20T04:31:12;2.60;;;2.60;;
73132;SDS011;61320;52.008;4.530;2023-07-20T04:33:39;2.49;;;2.49;;
73132;SDS011;61320;52.008;4.530;2023-07-20T04:36:05;2.58;;;2.58;;
73132;SDS011;61320;52.008;4.530;2023-07-20T04:38:34;2.52;;;2.52;;
73132;SDS011;61320;52.008;4.530;2023-07-20T04:41:00;2.74;;;2.74;;
73132;SDS011;61320;52.008;4.530;2023-07-20T04:43:25;2.83;;;2.83;;
73132;SDS011;61320;52.008;4.530;2023-07-20T04:45:52;3.03;;;3.03;;
73132;SDS011;61320;52.008;4.530;2023-07-20T04:48:17;3.01;;;3.01;;
73132;SDS011;61320;52.008;4.530;2023-07-20T04:50:43;2.92;;;2.92;;
73132;SDS011;61320;52.008;4.530;2023-07-20T04:53:10;2.91;;;2.91;;
73132;SDS011;61320;52.008;4.530;2023-07-20T04:55:39;2.83;;;2.83;;
73132;SDS011;61320;52.008;4.530;2023-07-20T04:58:06;2.80;;;2.80;;
73132;SDS011;61320;52.008;4.530;2023-07-20T05:00:32;2.82;;;2.82;;
73132;SDS011;61320;52.008;4.530;2023-07-20T05:02:59;3.05;;;3.05;;
73132;SDS011;61320;52.008;4.530;2023-07-20T05:05:24;2.82;;;2.82;;
73132;SDS011;61320;52.008;4.530;2023-07-20T05:07:50;2.98;;;2.98;;
73132;SDS011;61320;52.008;4.530;2023-07-20T05:10:16;3.20;;;3.20;;
73132;SDS011;61320;52.008;4.530;2023-07-20T05:12:41;3.13;;;3.13;;
73132;SDS011;61320;52.008;4.530;2023-07-20T05:15:07;3.10;;;3.10;;
73132;SDS011;61320;52.008;4.530;2023-07-20T05:17:33;3.02;;;3.02;;
73132;SDS011;61320;52.008;4.530;2023-07-20T05:19:58;3.02;;;3.02;;
73132;SDS011;61320;52.008;4.530;2023-07-20T05:22:24;2.94;;;2.94;;
73132;SDS011;61320;52.008;4.530;2023-07-20T05:24:50;2.95;;;2.95;;
73132;SDS011;61320;52.008;4.530;2023-07-20T05:27:15;3.03;;;3.03;;
73132;SDS011;61320;52.008;4.530;2023-07-20T05:29:47;3.17;;;3.17;;
73132;SDS011;61320;52.008;4.530;2023-07-20T05:32:15;2.89;;;2.89;;
73132;SDS011;61320;52.008;4.530;2023-07-20T05:34:41;2.92;;;2.92;;
73132;SDS011;61320;52.008;4.530;2023-07-20T05:37:06;2.94;;;2.94;;
73132;SDS011;61320;52.008;4.530;2023-07-20T05:39:32;2.84;;;2.84;;
73132;SDS011;61320;52.008;4.530;2023-07-20T05:41:58;2.31;;;2.31;;
73132;SDS011;61320;52.008;4.530;2023-07-20T05:44:24;2.47;;;2.47;;
73132;SDS011;61320;52.008;4.530;2023-07-20T05:46:49;2.68;;;2.68;;
73132;SDS011;61320;52.008;4.530;2023-07-20T05:49:14;2.98;;;2.98;;
73132;SDS011;61320;52.008;4.530;2023-07-20T05:51:40;3.55;;;3.55;;
73132;SDS011;61320;52.008;4.530;2023-07-20T05:54:05;3.38;;;3.38;;
73132;SDS011;61320;52.008;4.530;2023-07-20T05:56:31;2.91;;;2.91;;
73132;SDS011;61320;52.008;4.530;2023-07-20T05:58:56;2.56;;;2.56;;
73132;SDS011;61320;52.008;4.530;2023-07-20T06:01:22;2.62;;;2.62;;
73132;SDS011;61320;52.008;4.530;2023-07-20T06:03:47;3.12;;;3.12;;
73132;SDS011;61320;52.008;4.530;2023-07-20T06:06:13;3.46;;;3.46;;
73132;SDS011;61320;52.008;4.530;2023-07-20T06:08:40;3.49;;;3.49;;
73132;SDS011;61320;52.008;4.530;2023-07-20T06:11:05;3.35;;;3.35;;
73132;SDS011;61320;52.008;4.530;2023-07-20T06:13:31;2.65;;;2.65;;
73132;SDS011;61320;52.008;4.530;2023-07-20T06:15:56;2.66;;;2.66;;
73132;SDS011;61320;52.008;4.530;2023-07-20T06:18:22;1.88;;;1.88;;
73132;SDS011;61320;52.008;4.530;2023-07-20T06:20:49;1.88;;;1.88;;
73132;SDS011;61320;52.008;4.530;2023-07-20T06:23:15;1.59;;;1.59;;
73132;SDS011;61320;52.008;4.530;2023-07-20T06:25:41;1.61;;;1.61;;
73132;SDS011;61320;52.008;4.530;2023-07-20T06:28:07;1.77;;;1.77;;
73132;SDS011;61320;52.008;4.530;2023-07-20T06:30:33;1.72;;;1.72;;
73132;SDS011;61320;52.008;4.530;2023-07-20T06:32:59;1.49;;;1.49;;
73132;SDS011;61320;52.008;4.530;2023-07-20T06:35:25;1.43;;;1.43;;
73132;SDS011;61320;52.008;4.530;2023-07-20T06:37:51;1.39;;;1.39;;
73132;SDS011;61320;52.008;4.530;2023-07-20T06:40:17;1.39;;;1.39;;
73132;SDS011;61320;52.008;4.530;2023-07-20T06:42:43;1.59;;;1.59;;
73132;SDS011;61320;52.008;4.530;2023-07-20T06:45:08;1.53;;;1.53;;
73132;SDS011;61320;52.008;4.530;2023-07-20T06:47:34;1.50;;;1.50;;
73132;SDS011;61320;52.008;4.530;2023-07-20T06:50:00;1.25;;;1.25;;
73132;SDS011;61320;52.008;4.530;2023-07-20T06:52:25;1.27;;;1.27;;
73132;SDS011;61320;52.008;4.530;2023-07-20T06:54:54;1.37;;;1.37;;
73132;SDS011;61320;52.008;4.530;2023-07-20T06:57:19;1.39;;;1.39;;
73132;SDS011;61320;52.008;4.530;2023-07-20T06:59:45;1.28;;;1.28;;
73132;SDS011;61320;52.008;4.530;2023-07-20T07:02:10;1.48;;;1.48;;
73132;SDS011;61320;52.008;4.530;2023-07-20T07:04:36;1.46;;;1.46;;
73132;SDS011;61320;52.008;4.530;2023-07-20T07:07:01;1.60;;;1.60;;
73132;SDS011;61320;52.008;4.530;2023-07-20T07:09:28;1.62;;;1.62;;
73132;SDS011;61320;52.008;4.530;2023-07-20T07:11:54;1.61;;;1.61;;
73132;SDS011;61320;52.008;4.530;2023-07-20T07:14:19;1.54;;;1.54;;
73132;SDS011;61320;52.008;4.530;2023-07-20T07:16:45;1.60;;;1.60;;
73132;SDS011;61320;52.008;4.530;2023-07-20T07:19:11;1.45;;;1.45;;
73132;SDS011;61320;52.008;4.530;2023-07-20T07:21:36;1.33;;;1.33;;
73132;SDS011;61320;52.008;4.530;2023-07-20T07:24:02;1.48;;;1.48;;
73132;SDS011;61320;52.008;4.530;2023-07-20T07:26:28;1.62;;;1.62;;
73132;SDS011;61320;52.008;4.530;2023-07-20T07:28:54;1.77;;;1.77;;
73132;SDS011;61320;52.008;4.530;2023-07-20T07:31:19;1.62;;;1.62;;
73132;SDS011;61320;52.008;4.530;2023-07-20T07:33:46;1.58;;;1.58;;
73132;SDS011;61320;52.008;4.530;2023-07-20T07:36:11;1.63;;;1.63;;
73132;SDS011;61320;52.008;4.530;2023-07-20T07:38:37;1.56;;;1.56;;
73132;SDS011;61320;52.008;4.530;2023-07-20T07:41:03;1.69;;;1.69;;
73132;SDS011;61320;52.008;4.530;2023-07-20T07:43:29;1.64;;;1.64;;
73132;SDS011;61320;52.008;4.530;2023-07-20T07:45:54;1.59;;;1.59;;
73132;SDS011;61320;52.008;4.530;2023-07-20T07:48:20;1.63;;;1.63;;
73132;SDS011;61320;52.008;4.530;2023-07-20T07:50:47;1.72;;;1.72;;
73132;SDS011;61320;52.008;4.530;2023-07-20T07:53:12;1.96;;;1.96;;
73132;SDS011;61320;52.008;4.530;2023-07-20T07:55:38;1.74;;;1.74;;
73132;SDS011;61320;52.008;4.530;2023-07-20T07:58:04;1.47;;;1.47;;
73132;SDS011;61320;52.008;4.530;2023-07-20T08:00:29;1.23;;;1.23;;
73132;SDS011;61320;52.008;4.530;2023-07-20T08:02:55;1.35;;;1.35;;
73132;SDS011;61320;52.008;4.530;2023-07-20T08:05:20;1.63;;;1.63;;
73132;SDS011;61320;52.008;4.530;2023-07-20T08:07:46;1.53;;;1.53;;
73132;SDS011;61320;52.008;4.530;2023-07-20T08:10:11;1.54;;;1.54;;
73132;SDS011;61320;52.008;4.530;2023-07-20T08:12:37;1.47;;;1.47;;
73132;SDS011;61320;52.008;4.530;2023-07-20T08:15:03;1.39;;;1.39;;
73132;SDS011;61320;52.008;4.530;2023-07-20T08:17:29;1.41;;;1.41;;
73132;SDS011;61320;52.008;4.530;2023-07-20T08:19:57;1.44;;;1.44;;
73132;SDS011;61320;52.008;4.530;2023-07-20T08:22:23;1.40;;;1.40;;
73132;SDS011;61320;52.008;4.530;2023-07-20T08:24:48;1.42;;;1.42;;
73132;SDS011;61320;52.008;4.530;2023-07-20T08:27:14;1.56;;;1.56;;
73132;SDS011;61320;52.008;4.530;2023-07-20T08:29:39;1.57;;;1.57;;
73132;SDS011;61320;52.008;4.530;2023-07-20T08:32:05;1.40;;;1.40;;
73132;SDS011;61320;52.008;4.530;2023-07-20T08:34:31;1.54;;;1.54;;
73132;SDS011;61320;52.008;4.530;2023-07-20T08:36:57;1.50;;;1.50;;
73132;SDS011;61320;52.008;4.530;2023-07-20T08:39:23;1.57;;;1.57;;
73132;SDS011;61320;52.008;4.530;2023-07-20T08:41:49;1.52;;;1.52;;
73132;SDS011;61320;52.008;4.530;2023-07-20T08:44:17;1.46;;;1.46;;
73132;SDS011;61320;52.008;4.530;2023-07-20T08:46:42;1.36;;;1.36;;
73132;SDS011;61320;52.008;4.530;2023-07-20T08:49:09;1.38;;;1.38;;
73132;SDS011;61320;52.008;4.530;2023-07-20T08:51:36;1.20;;;1.20;;
73132;SDS011;61320;52.008;4.530;2023-07-20T08:54:03;1.20;;;1.20;;
73132;SDS011;61320;52.008;4.530;2023-07-20T08:56:29;1.10;;;1.10;;
73132;SDS011;61320;52.008;4.530;2023-07-20T08:58:59;1.27;;;1.27;;
73132;SDS011;61320;52.008;4.530;2023-07-20T09:01:24;1.33;;;1.33;;
73132;SDS011;61320;52.008;4.530;2023-07-20T09:03:53;1.23;;;1.23;;
73132;SDS011;61320;52.008;4.530;2023-07-20T09:06:19;1.34;;;1.34;;
73132;SDS011;61320;52.008;4.530;2023-07-20T09:08:44;1.34;;;1.34;;
73132;SDS011;61320;52.008;4.530;2023-07-20T09:11:11;1.13;;;1.13;;
73132;SDS011;61320;52.008;4.530;2023-07-20T09:13:41;1.05;;;1.05;;
73132;SDS011;61320;52.008;4.530;2023-07-20T09:16:06;1.21;;;1.21;;
73132;SDS011;61320;52.008;4.530;2023-07-20T09:18:32;1.16;;;1.16;;
73132;SDS011;61320;52.008;4.530;2023-07-20T09:21:03;0.98;;;0.98;;
73132;SDS011;61320;52.008;4.530;2023-07-20T09:23:32;1.10;;;1.10;;
73132;SDS011;61320;52.008;4.530;2023-07-20T09:26:11;1.18;;;1.18;;
73132;SDS011;61320;52.008;4.530;2023-07-20T09:28:41;1.07;;;1.07;;
73132;SDS011;61320;52.008;4.530;2023-07-20T09:31:30;1.09;;;1.09;;
73132;SDS011;61320;52.008;4.530;2023-07-20T09:33:55;1.03;;;1.03;;
73132;SDS011;61320;52.008;4.530;2023-07-20T09:36:21;1.01;;;1.01;;
73132;SDS011;61320;52.008;4.530;2023-07-20T09:38:46;1.00;;;1.00;;
73132;SDS011;61320;52.008;4.530;2023-07-20T09:41:15;0.99;;;0.99;;
73132;SDS011;61320;52.008;4.530;2023-07-20T09:43:43;0.92;;;0.92;;
73132;SDS011;61320;52.008;4.530;2023-07-20T09:46:10;1.06;;;1.06;;
73132;SDS011;61320;52.008;4.530;2023-07-20T09:48:38;1.09;;;1.09;;
73132;SDS011;61320;52.008;4.530;2023-07-20T09:51:04;1.02;;;1.02;;
73132;SDS011;61320;52.008;4.530;2023-07-20T09:53:32;1.31;;;1.31;;
73132;SDS011;61320;52.008;4.530;2023-07-20T09:55:59;0.99;;;0.99;;
73132;SDS011;61320;52.008;4.530;2023-07-20T09:58:25;1.13;;;1.13;;
73132;SDS011;61320;52.008;4.530;2023-07-20T10:00:52;1.25;;;1.25;;
73132;SDS011;61320;52.008;4.530;2023-07-20T10:03:22;1.13;;;1.13;;
73132;SDS011;61320;52.008;4.530;2023-07-20T10:06:00;1.04;;;1.04;;
73132;SDS011;61320;52.008;4.530;2023-07-20T10:08:30;1.03;;;1.03;;
73132;SDS011;61320;52.008;4.530;2023-07-20T10:10:59;1.08;;;1.08;;
73132;SDS011;61320;52.008;4.530;2023-07-20T10:13:27;1.17;;;1.17;;
73132;SDS011;61320;52.008;4.530;2023-07-20T10:19:21;0.95;;;0.95;;
73132;SDS011;61320;52.008;4.530;2023-07-20T10:21:51;1.01;;;1.01;;
73132;SDS011;61320;52.008;4.530;2023-07-20T10:24:22;1.22;;;1.22;;
73132;SDS011;61320;52.008;4.530;2023-07-20T10:26:52;1.22;;;1.22;;
73132;SDS011;61320;52.008;4.530;2023-07-20T10:29:20;1.24;;;1.24;;
73132;SDS011;61320;52.008;4.530;2023-07-20T10:31:46;1.25;;;1.25;;
73132;SDS011;61320;52.008;4.530;2023-07-20T10:34:13;1.26;;;1.26;;
73132;SDS011;61320;52.008;4.530;2023-07-20T10:36:46;1.24;;;1.24;;
73132;SDS011;61320;52.008;4.530;2023-07-20T10:39:24;1.16;;;1.16;;
73132;SDS011;61320;52.008;4.530;2023-07-20T10:41:57;0.99;;;0.99;;
73132;SDS011;61320;52.008;4.530;2023-07-20T10:44:28;1.14;;;1.14;;
73132;SDS011;61320;52.008;4.530;2023-07-20T10:47:01;1.06;;;1.06;;
73132;SDS011;61320;52.008;4.530;2023-07-20T10:49:32;1.17;;;1.17;;
73132;SDS011;61320;52.008;4.530;2023-07-20T10:52:03;1.16;;;1.16;;
73132;SDS011;61320;52.008;4.530;2023-07-20T10:54:33;1.69;;;1.69;;
73132;SDS011;61320;52.008;4.530;2023-07-20T10:57:21;1.46;;;1.46;;
73132;SDS011;61320;52.008;4.530;2023-07-20T11:00:11;1.10;;;1.10;;
73132;SDS011;61320;52.008;4.530;2023-07-20T11:02:42;1.27;;;1.27;;
73132;SDS011;61320;52.008;4.530;2023-07-20T11:05:31;1.18;;;1.18;;
73132;SDS011;61320;52.008;4.530;2023-07-20T11:08:13;1.14;;;1.14;;
73132;SDS011;61320;52.008;4.530;2023-07-20T11:11:32;1.23;;;1.23;;
73132;SDS011;61320;52.008;4.530;2023-07-20T11:13:57;1.07;;;1.07;;
73132;SDS011;61320;52.008;4.530;2023-07-20T11:18:58;1.19;;;1.19;;
73132;SDS011;61320;52.008;4.530;2023-07-20T11:21:24;1.35;;;1.35;;
73132;SDS011;61320;52.008;4.530;2023-07-20T11:23:50;1.22;;;1.22;;
73132;SDS011;61320;52.008;4.530;2023-07-20T11:26:17;1.15;;;1.15;;
73132;SDS011;61320;52.008;4.530;2023-07-20T11:28:43;2.63;;;2.63;;
73132;SDS011;61320;52.008;4.530;2023-07-20T11:31:08;1.04;;;1.04;;
73132;SDS011;61320;52.008;4.530;2023-07-20T11:33:34;0.92;;;0.92;;
73132;SDS011;61320;52.008;4.530;2023-07-20T11:38:51;0.99;;;0.99;;
73132;SDS011;61320;52.008;4.530;2023-07-20T11:41:17;1.00;;;1.00;;
73132;SDS011;61320;52.008;4.530;2023-07-20T11:43:42;1.03;;;1.03;;
73132;SDS011;61320;52.008;4.530;2023-07-20T11:46:10;1.11;;;1.11;;
73132;SDS011;61320;52.008;4.530;2023-07-20T11:48:36;0.99;;;0.99;;
73132;SDS011;61320;52.008;4.530;2023-07-20T11:51:02;1.05;;;1.05;;
73132;SDS011;61320;52.008;4.530;2023-07-20T11:53:27;1.00;;;1.00;;
73132;SDS011;61320;52.008;4.530;2023-07-20T11:55:54;0.97;;;0.97;;
73132;SDS011;61320;52.008;4.530;2023-07-20T11:58:19;0.99;;;0.99;;
73132;SDS011;61320;52.008;4.530;2023-07-20T12:00:46;1.10;;;1.10;;
73132;SDS011;61320;52.008;4.530;2023-07-20T12:03:12;1.12;;;1.12;;
73132;SDS011;61320;52.008;4.530;2023-07-20T12:05:38;1.22;;;1.22;;
73132;SDS011;61320;52.008;4.530;2023-07-20T12:08:05;1.24;;;1.24;;
73132;SDS011;61320;52.008;4.530;2023-07-20T12:10:33;1.11;;;1.11;;
73132;SDS011;61320;52.008;4.530;2023-07-20T12:13:02;1.07;;;1.07;;
73132;SDS011;61320;52.008;4.530;2023-07-20T12:15:32;0.97;;;0.97;;
73132;SDS011;61320;52.008;4.530;2023-07-20T12:17:58;1.11;;;1.11;;
73132;SDS011;61320;52.008;4.530;2023-07-20T12:20:35;1.20;;;1.20;;
73132;SDS011;61320;52.008;4.530;2023-07-20T12:23:02;2.17;;;2.17;;
73132;SDS011;61320;52.008;4.530;2023-07-20T12:25:37;2.89;;;2.89;;
73132;SDS011;61320;52.008;4.530;2023-07-20T12:28:10;1.35;;;1.35;;
73132;SDS011;61320;52.008;4.530;2023-07-20T12:30:38;1.24;;;1.24;;
73132;SDS011;61320;52.008;4.530;2023-07-20T12:33:04;1.24;;;1.24;;
73132;SDS011;61320;52.008;4.530;2023-07-20T12:35:31;1.22;;;1.22;;
73132;SDS011;61320;52.008;4.530;2023-07-20T12:37:57;1.21;;;1.21;;
73132;SDS011;61320;52.008;4.530;2023-07-20T12:40:23;1.08;;;1.08;;
73132;SDS011;61320;52.008;4.530;2023-07-20T12:42:49;1.20;;;1.20;;
73132;SDS011;61320;52.008;4.530;2023-07-20T12:45:14;1.11;;;1.11;;
73132;SDS011;61320;52.008;4.530;2023-07-20T12:47:43;1.00;;;1.00;;
73132;SDS011;61320;52.008;4.530;2023-07-20T12:50:11;0.90;;;0.90;;
73132;SDS011;61320;52.008;4.530;2023-07-20T12:52:38;1.14;;;1.14;;
73132;SDS011;61320;52.008;4.530;2023-07-20T12:55:05;1.09;;;1.09;;
73132;SDS011;61320;52.008;4.530;2023-07-20T12:57:33;1.13;;;1.13;;
73132;SDS011;61320;52.008;4.530;2023-07-20T13:00:00;0.99;;;0.99;;
73132;SDS011;61320;52.008;4.530;2023-07-20T13:02:32;0.95;;;0.95;;
73132;SDS011;61320;52.008;4.530;2023-07-20T13:04:58;1.09;;;1.09;;
73132;SDS011;61320;52.008;4.530;2023-07-20T13:07:30;1.03;;;1.03;;
73132;SDS011;61320;52.008;4.530;2023-07-20T13:10:01;1.07;;;1.07;;
73132;SDS011;61320;52.008;4.530;2023-07-20T13:12:32;1.10;;;1.10;;
73132;SDS011;61320;52.008;4.530;2023-07-20T13:15:00;1.01;;;1.01;;
73132;SDS011;61320;52.008;4.530;2023-07-20T13:17:26;0.90;;;0.90;;
73132;SDS011;61320;52.008;4.530;2023-07-20T13:19:52;0.95;;;0.95;;
73132;SDS011;61320;52.008;4.530;2023-07-20T13:22:18;1.06;;;1.06;;
73132;SDS011;61320;52.008;4.530;2023-07-20T13:24:52;0.99;;;0.99;;
73132;SDS011;61320;52.008;4.530;2023-07-20T13:27:18;0.89;;;0.89;;
73132;SDS011;61320;52.008;4.530;2023-07-20T13:29:44;0.99;;;0.99;;
73132;SDS011;61320;52.008;4.530;2023-07-20T13:32:13;0.90;;;0.90;;
73132;SDS011;61320;52.008;4.530;2023-07-20T13:34:45;0.95;;;0.95;;
73132;SDS011;61320;52.008;4.530;2023-07-20T13:37:14;1.05;;;1.05;;
73132;SDS011;61320;52.008;4.530;2023-07-20T13:39:41;0.95;;;0.95;;
73132;SDS011;61320;52.008;4.530;2023-07-20T13:42:07;0.81;;;0.81;;
73132;SDS011;61320;52.008;4.530;2023-07-20T13:44:34;0.72;;;0.72;;
73132;SDS011;61320;52.008;4.530;2023-07-20T13:47:00;0.79;;;0.79;;
73132;SDS011;61320;52.008;4.530;2023-07-20T13:49:26;0.85;;;0.85;;
73132;SDS011;61320;52.008;4.530;2023-07-20T13:51:52;0.90;;;0.90;;
73132;SDS011;61320;52.008;4.530;2023-07-20T13:54:18;0.92;;;0.92;;
73132;SDS011;61320;52.008;4.530;2023-07-20T13:56:43;0.91;;;0.91;;
73132;SDS011;61320;52.008;4.530;2023-07-20T13:59:09;0.84;;;0.84;;
73132;SDS011;61320;52.008;4.530;2023-07-20T14:01:34;0.81;;;0.81;;
73132;SDS011;61320;52.008;4.530;2023-07-20T14:04:00;0.84;;;0.84;;
73132;SDS011;61320;52.008;4.530;2023-07-20T14:06:31;0.93;;;0.93;;
73132;SDS011;61320;52.008;4.530;2023-07-20T14:08:58;0.86;;;0.86;;
73132;SDS011;61320;52.008;4.530;2023-07-20T14:11:24;0.79;;;0.79;;
73132;SDS011;61320;52.008;4.530;2023-07-20T14:13:53;1.05;;;1.05;;
73132;SDS011;61320;52.008;4.530;2023-07-20T14:16:21;0.73;;;0.73;;
73132;SDS011;61320;52.008;4.530;2023-07-20T14:18:47;0.56;;;0.56;;
73132;SDS011;61320;52.008;4.530;2023-07-20T14:21:14;0.61;;;0.61;;
73132;SDS011;61320;52.008;4.530;2023-07-20T14:23:40;0.73;;;0.73;;
73132;SDS011;61320;52.008;4.530;2023-07-20T14:26:05;0.70;;;0.70;;
73132;SDS011;61320;52.008;4.530;2023-07-20T14:28:32;0.76;;;0.76;;
73132;SDS011;61320;52.008;4.530;2023-07-20T14:30:58;0.66;;;0.66;;
73132;SDS011;61320;52.008;4.530;2023-07-20T14:33:23;0.62;;;0.62;;
73132;SDS011;61320;52.008;4.530;2023-07-20T14:35:48;0.73;;;0.73;;
73132;SDS011;61320;52.008;4.530;2023-07-20T14:38:14;0.89;;;0.89;;
73132;SDS011;61320;52.008;4.530;2023-07-20T14:40:39;0.74;;;0.74;;
73132;SDS011;61320;52.008;4.530;2023-07-20T14:43:04;0.60;;;0.60;;
73132;SDS011;61320;52.008;4.530;2023-07-20T14:45:30;0.63;;;0.63;;
73132;SDS011;61320;52.008;4.530;2023-07-20T14:47:55;0.78;;;0.78;;
73132;SDS011;61320;52.008;4.530;2023-07-20T14:50:21;0.79;;;0.79;;
73132;SDS011;61320;52.008;4.530;2023-07-20T14:52:46;0.66;;;0.66;;
73132;SDS011;61320;52.008;4.530;2023-07-20T14:55:12;0.69;;;0.69;;
73132;SDS011;61320;52.008;4.530;2023-07-20T14:57:37;0.66;;;0.66;;
73132;SDS011;61320;52.008;4.530;2023-07-20T15:00:03;0.64;;;0.64;;
73132;SDS011;61320;52.008;4.530;2023-07-20T15:02:33;0.65;;;0.65;;
73132;SDS011;61320;52.008;4.530;2023-07-20T15:04:58;0.70;;;0.70;;
73132;SDS011;61320;52.008;4.530;2023-07-20T15:07:24;0.68;;;0.68;;